Needles, CA (92363)

12:52 PM PST on January 23, 2017 (GMT -0800)
WA6GDF Colorado River near Needles Bridge | | Change Station

Elev 479 ft 34.85 °N, 114.60 °W | Updated 8 minutes ago

Mostly Cloudy
Mostly Cloudy
62.9 °F
Feels Like 62.9 °F
N
6.0
Wind Variable Wind from NNW
Gusts 17.0 mph

Today
High -- | Low -- °F
--% Chance of Precip.
Yesterday
High -- | Low -- °F
Precip. -- in
Pressure 29.74 in
Visibility 10.0 miles
Clouds Scattered Clouds 6000 ft
Mostly Cloudy 8000 ft
Dew Point 37 °F
Humidity 39%
Rainfall 0.00 in
Snow Depth Not available.
6:42 AM 4:58 PM
Waning Crescent, 16% visible
METAR KEED 231956Z AUTO 24011G22KT 10SM SCT060 BKN080 17/02 A2978 RMK AO2 SLP070 T01720022
Pressure 29.74 in
Visibility 10.0 miles
Clouds Scattered Clouds 6000 ft
Mostly Cloudy 8000 ft
Dew Point 37 °F
Humidity 39%
Rainfall 0.00 in
Snow Depth Not available.
6:42 AM 4:58 PM
Waning Crescent, 16% visible
METAR KEED 231956Z AUTO 24011G22KT 10SM SCT060 BKN080 17/02 A2978 RMK AO2 SLP070 T01720022

Get Your Daily Forecast Email!

Thanks for signing up!

Be on the lookout for a verification email in your inbox.

You'll start receiving the daily forecast at 8 AM.

×

10-Day Weather Forecast

Almanac

Astronomy

Jan. 23, 2017 Rise Set
Actual Time
Civil Twilight
Nautical Twilight
Astronomical Twilight
Moon
Length of Visible Light
Length of Day
Tomorrow will be .
, % of the Moon is Illuminated

Today's Extremes

State Highs State Lows

Community

WunderPhotos

Upload Photos

1,962,540 photos uploaded!

WunderBlog® & News

Nearby

Air Quality

  Air Quality AQ Index Pollutant
Not available.

Snow Depth

Station Depth Elevation

Earthquake Activity

City Distance Mag. Time & Date
Minimum magnitude displayed is 2.5.

Coastal Water Temperatures

Place Temperature

Stations

Nearby Weather Stations

Station Location Temp. Windchill Dew Point Humidity Wind Precip. Elev Updated Type
                   

Watches & Warnings

There are currently no watches in effect.